sensor_id;sensor_type;location;lat;lon;timestamp;P1;durP1;ratioP1;P2;durP2;ratioP2
16804;SDS011;8520;50.102;20.010;2023-10-08T00:02:11;124.28;;;115.93;;
16804;SDS011;8520;50.102;20.010;2023-10-08T00:04:49;120.25;;;112.65;;
16804;SDS011;8520;50.102;20.010;2023-10-08T00:07:18;117.95;;;110.65;;
16804;SDS011;8520;50.102;20.010;2023-10-08T00:09:48;113.82;;;106.82;;
16804;SDS011;8520;50.102;20.010;2023-10-08T00:12:17;114.70;;;107.70;;
16804;SDS011;8520;50.102;20.010;2023-10-08T00:14:46;112.78;;;105.97;;
16804;SDS011;8520;50.102;20.010;2023-10-08T00:17:17;114.90;;;107.90;;
16804;SDS011;8520;50.102;20.010;2023-10-08T00:19:45;113.97;;;107.07;;
16804;SDS011;8520;50.102;20.010;2023-10-08T00:22:19;114.60;;;107.60;;
16804;SDS011;8520;50.102;20.010;2023-10-08T00:24:48;115.80;;;108.70;;
16804;SDS011;8520;50.102;20.010;2023-10-08T00:27:24;116.77;;;109.57;;
16804;SDS011;8520;50.102;20.010;2023-10-08T00:29:52;119.97;;;112.57;;
16804;SDS011;8520;50.102;20.010;2023-10-08T00:32:21;120.50;;;112.90;;
16804;SDS011;8520;50.102;20.010;2023-10-08T00:34:50;121.53;;;113.83;;
16804;SDS011;8520;50.102;20.010;2023-10-08T00:37:17;121.10;;;113.50;;
16804;SDS011;8520;50.102;20.010;2023-10-08T00:39:50;121.67;;;114.07;;
16804;SDS011;8520;50.102;20.010;2023-10-08T00:42:18;121.30;;;113.70;;
16804;SDS011;8520;50.102;20.010;2023-10-08T00:44:46;123.27;;;115.57;;
16804;SDS011;8520;50.102;20.010;2023-10-08T00:47:18;122.97;;;115.27;;
16804;SDS011;8520;50.102;20.010;2023-10-08T00:49:51;121.97;;;114.27;;
16804;SDS011;8520;50.102;20.010;2023-10-08T00:52:33;120.83;;;113.27;;
16804;SDS011;8520;50.102;20.010;2023-10-08T00:55:14;113.80;;;106.90;;
16804;SDS011;8520;50.102;20.010;2023-10-08T00:57:51;108.80;;;102.40;;
16804;SDS011;8520;50.102;20.010;2023-10-08T01:00:24;104.87;;;98.77;;
16804;SDS011;8520;50.102;20.010;2023-10-08T01:03:00;104.23;;;98.23;;
16804;SDS011;8520;50.102;20.010;2023-10-08T01:05:30;105.20;;;99.10;;
16804;SDS011;8520;50.102;20.010;2023-10-08T01:08:14;107.80;;;101.50;;
16804;SDS011;8520;50.102;20.010;2023-10-08T01:10:49;108.77;;;102.30;;
16804;SDS011;8520;50.102;20.010;2023-10-08T01:13:30;110.43;;;103.80;;
16804;SDS011;8520;50.102;20.010;2023-10-08T01:16:03;111.30;;;104.60;;
16804;SDS011;8520;50.102;20.010;2023-10-08T01:18:31;109.00;;;102.50;;
16804;SDS011;8520;50.102;20.010;2023-10-08T01:21:04;108.80;;;102.30;;
16804;SDS011;8520;50.102;20.010;2023-10-08T01:23:38;107.97;;;101.57;;
16804;SDS011;8520;50.102;20.010;2023-10-08T01:26:06;108.10;;;101.70;;
16804;SDS011;8520;50.102;20.010;2023-10-08T01:28:39;108.10;;;101.70;;
16804;SDS011;8520;50.102;20.010;2023-10-08T01:31:09;108.30;;;101.90;;
16804;SDS011;8520;50.102;20.010;2023-10-08T01:33:39;110.63;;;103.93;;
16804;SDS011;8520;50.102;20.010;2023-10-08T01:36:14;112.53;;;105.73;;
16804;SDS011;8520;50.102;20.010;2023-10-08T01:38:43;113.17;;;106.07;;
16804;SDS011;8520;50.102;20.010;2023-10-08T01:41:15;110.47;;;103.87;;
16804;SDS011;8520;50.102;20.010;2023-10-08T01:43:46;108.23;;;101.83;;
16804;SDS011;8520;50.102;20.010;2023-10-08T01:46:14;105.57;;;99.37;;
16804;SDS011;8520;50.102;20.010;2023-10-08T01:48:42;105.03;;;98.93;;
16804;SDS011;8520;50.102;20.010;2023-10-08T01:51:12;104.90;;;98.80;;
16804;SDS011;8520;50.102;20.010;2023-10-08T01:53:53;103.00;;;97.00;;
16804;SDS011;8520;50.102;20.010;2023-10-08T01:56:22;103.27;;;97.27;;
16804;SDS011;8520;50.102;20.010;2023-10-08T01:58:51;102.40;;;96.47;;
16804;SDS011;8520;50.102;20.010;2023-10-08T02:01:19;102.17;;;96.27;;
16804;SDS011;8520;50.102;20.010;2023-10-08T02:03:47;102.13;;;96.23;;
16804;SDS011;8520;50.102;20.010;2023-10-08T02:06:17;101.07;;;95.27;;
16804;SDS011;8520;50.102;20.010;2023-10-08T02:08:47;98.53;;;93.03;;
16804;SDS011;8520;50.102;20.010;2023-10-08T02:11:17;99.93;;;94.33;;
16804;SDS011;8520;50.102;20.010;2023-10-08T02:13:47;100.67;;;94.87;;
16804;SDS011;8520;50.102;20.010;2023-10-08T02:16:17;101.27;;;95.47;;
16804;SDS011;8520;50.102;20.010;2023-10-08T02:18:45;101.20;;;95.40;;
16804;SDS011;8520;50.102;20.010;2023-10-08T02:21:17;100.00;;;94.30;;
16804;SDS011;8520;50.102;20.010;2023-10-08T02:23:47;99.73;;;94.03;;
16804;SDS011;8520;50.102;20.010;2023-10-08T02:26:16;100.33;;;94.63;;
16804;SDS011;8520;50.102;20.010;2023-10-08T02:28:46;101.73;;;95.93;;
16804;SDS011;8520;50.102;20.010;2023-10-08T02:31:14;101.50;;;95.70;;
16804;SDS011;8520;50.102;20.010;2023-10-08T02:33:42;100.33;;;94.60;;
16804;SDS011;8520;50.102;20.010;2023-10-08T02:36:10;99.93;;;94.17;;
16804;SDS011;8520;50.102;20.010;2023-10-08T02:38:40;101.43;;;95.53;;
16804;SDS011;8520;50.102;20.010;2023-10-08T02:41:08;101.27;;;95.37;;
16804;SDS011;8520;50.102;20.010;2023-10-08T02:43:42;102.27;;;96.27;;
16804;SDS011;8520;50.102;20.010;2023-10-08T02:46:11;101.67;;;95.50;;
16804;SDS011;8520;50.102;20.010;2023-10-08T02:48:42;100.90;;;95.10;;
16804;SDS011;8520;50.102;20.010;2023-10-08T02:51:10;101.67;;;95.77;;
16804;SDS011;8520;50.102;20.010;2023-10-08T02:53:41;103.07;;;97.07;;
16804;SDS011;8520;50.102;20.010;2023-10-08T02:56:11;104.87;;;98.57;;
16804;SDS011;8520;50.102;20.010;2023-10-08T02:58:43;104.80;;;98.63;;
16804;SDS011;8520;50.102;20.010;2023-10-08T03:01:11;104.37;;;98.13;;
16804;SDS011;8520;50.102;20.010;2023-10-08T03:03:40;104.03;;;97.73;;
16804;SDS011;8520;50.102;20.010;2023-10-08T03:06:09;103.97;;;97.77;;
16804;SDS011;8520;50.102;20.010;2023-10-08T03:08:38;100.67;;;94.77;;
16804;SDS011;8520;50.102;20.010;2023-10-08T03:11:09;100.77;;;94.97;;
16804;SDS011;8520;50.102;20.010;2023-10-08T03:13:45;100.00;;;94.20;;
16804;SDS011;8520;50.102;20.010;2023-10-08T03:16:19;100.70;;;94.80;;
16804;SDS011;8520;50.102;20.010;2023-10-08T03:18:55;99.27;;;93.57;;
16804;SDS011;8520;50.102;20.010;2023-10-08T03:21:24;99.13;;;93.43;;
16804;SDS011;8520;50.102;20.010;2023-10-08T03:24:15;100.57;;;94.70;;
16804;SDS011;8520;50.102;20.010;2023-10-08T03:26:56;98.57;;;92.87;;
16804;SDS011;8520;50.102;20.010;2023-10-08T03:29:34;98.07;;;92.37;;
16804;SDS011;8520;50.102;20.010;2023-10-08T03:32:12;98.93;;;93.23;;
16804;SDS011;8520;50.102;20.010;2023-10-08T03:34:44;99.33;;;93.33;;
16804;SDS011;8520;50.102;20.010;2023-10-08T03:37:13;98.60;;;92.90;;
16804;SDS011;8520;50.102;20.010;2023-10-08T03:39:46;99.80;;;93.90;;
16804;SDS011;8520;50.102;20.010;2023-10-08T03:42:27;101.43;;;95.47;;
16804;SDS011;8520;50.102;20.010;2023-10-08T03:45:03;102.30;;;96.30;;
16804;SDS011;8520;50.102;20.010;2023-10-08T03:47:39;104.67;;;98.27;;
16804;SDS011;8520;50.102;20.010;2023-10-08T03:50:13;104.30;;;97.80;;
16804;SDS011;8520;50.102;20.010;2023-10-08T03:52:44;104.13;;;97.83;;
16804;SDS011;8520;50.102;20.010;2023-10-08T03:55:13;103.63;;;97.53;;
16804;SDS011;8520;50.102;20.010;2023-10-08T03:57:48;103.37;;;97.27;;
16804;SDS011;8520;50.102;20.010;2023-10-08T04:00:25;104.13;;;97.93;;
16804;SDS011;8520;50.102;20.010;2023-10-08T04:02:59;106.87;;;100.30;;
16804;SDS011;8520;50.102;20.010;2023-10-08T04:05:35;107.97;;;101.47;;
16804;SDS011;8520;50.102;20.010;2023-10-08T04:08:11;108.80;;;102.20;;
16804;SDS011;8520;50.102;20.010;2023-10-08T04:10:51;111.00;;;104.23;;
16804;SDS011;8520;50.102;20.010;2023-10-08T04:13:49;113.47;;;106.47;;
16804;SDS011;8520;50.102;20.010;2023-10-08T04:16:20;113.27;;;106.17;;
16804;SDS011;8520;50.102;20.010;2023-10-08T04:18:48;112.33;;;105.43;;
16804;SDS011;8520;50.102;20.010;2023-10-08T04:21:17;113.20;;;106.20;;
16804;SDS011;8520;50.102;20.010;2023-10-08T04:23:47;111.57;;;104.63;;
16804;SDS011;8520;50.102;20.010;2023-10-08T04:26:19;110.13;;;103.13;;
16804;SDS011;8520;50.102;20.010;2023-10-08T04:28:51;108.33;;;101.73;;
16804;SDS011;8520;50.102;20.010;2023-10-08T04:31:25;107.50;;;100.93;;
16804;SDS011;8520;50.102;20.010;2023-10-08T04:33:55;104.77;;;98.37;;
16804;SDS011;8520;50.102;20.010;2023-10-08T04:36:27;102.57;;;96.47;;
16804;SDS011;8520;50.102;20.010;2023-10-08T04:38:55;98.67;;;92.77;;
16804;SDS011;8520;50.102;20.010;2023-10-08T04:41:29;99.27;;;93.27;;
16804;SDS011;8520;50.102;20.010;2023-10-08T04:44:00;99.23;;;93.33;;
16804;SDS011;8520;50.102;20.010;2023-10-08T04:46:35;99.77;;;93.87;;
16804;SDS011;8520;50.102;20.010;2023-10-08T04:49:14;99.60;;;93.80;;
16804;SDS011;8520;50.102;20.010;2023-10-08T04:51:56;100.73;;;94.57;;
16804;SDS011;8520;50.102;20.010;2023-10-08T04:54:25;99.93;;;94.03;;
16804;SDS011;8520;50.102;20.010;2023-10-08T04:56:57;99.73;;;93.70;;
16804;SDS011;8520;50.102;20.010;2023-10-08T04:59:26;101.30;;;95.03;;
16804;SDS011;8520;50.102;20.010;2023-10-08T05:02:02;99.57;;;93.47;;
16804;SDS011;8520;50.102;20.010;2023-10-08T05:04:46;101.20;;;94.80;;
16804;SDS011;8520;50.102;20.010;2023-10-08T05:07:33;102.87;;;96.27;;
16804;SDS011;8520;50.102;20.010;2023-10-08T05:10:23;102.83;;;96.37;;
16804;SDS011;8520;50.102;20.010;2023-10-08T05:13:27;102.13;;;95.80;;
16804;SDS011;8520;50.102;20.010;2023-10-08T05:16:03;103.03;;;96.57;;
16804;SDS011;8520;50.102;20.010;2023-10-08T05:18:47;103.40;;;96.83;;
16804;SDS011;8520;50.102;20.010;2023-10-08T05:21:32;104.00;;;97.53;;
16804;SDS011;8520;50.102;20.010;2023-10-08T05:24:18;102.53;;;96.13;;
16804;SDS011;8520;50.102;20.010;2023-10-08T05:26:54;102.73;;;96.23;;
16804;SDS011;8520;50.102;20.010;2023-10-08T05:29:47;104.27;;;97.77;;
16804;SDS011;8520;50.102;20.010;2023-10-08T05:32:35;102.63;;;96.33;;
16804;SDS011;8520;50.102;20.010;2023-10-08T05:35:20;101.40;;;95.20;;
16804;SDS011;8520;50.102;20.010;2023-10-08T05:38:16;100.60;;;94.10;;
16804;SDS011;8520;50.102;20.010;2023-10-08T05:40:51;98.17;;;92.07;;
16804;SDS011;8520;50.102;20.010;2023-10-08T05:43:33;99.20;;;93.10;;
16804;SDS011;8520;50.102;20.010;2023-10-08T05:46:15;98.87;;;92.60;;
16804;SDS011;8520;50.102;20.010;2023-10-08T05:49:06;97.40;;;91.50;;
16804;SDS011;8520;50.102;20.010;2023-10-08T05:51:54;95.37;;;89.67;;
16804;SDS011;8520;50.102;20.010;2023-10-08T05:54:40;95.63;;;90.00;;
16804;SDS011;8520;50.102;20.010;2023-10-08T05:57:35;94.27;;;88.77;;
16804;SDS011;8520;50.102;20.010;2023-10-08T06:00:06;92.67;;;87.33;;
16804;SDS011;8520;50.102;20.010;2023-10-08T06:02:51;92.23;;;87.03;;
16804;SDS011;8520;50.102;20.010;2023-10-08T06:05:36;91.60;;;86.40;;
16804;SDS011;8520;50.102;20.010;2023-10-08T06:08:31;90.93;;;85.63;;
16804;SDS011;8520;50.102;20.010;2023-10-08T06:11:16;90.73;;;85.40;;
16804;SDS011;8520;50.102;20.010;2023-10-08T06:13:54;88.50;;;83.43;;
16804;SDS011;8520;50.102;20.010;2023-10-08T06:16:26;87.60;;;82.60;;
16804;SDS011;8520;50.102;20.010;2023-10-08T06:19:10;86.03;;;81.33;;
16804;SDS011;8520;50.102;20.010;2023-10-08T06:21:38;85.40;;;80.67;;
16804;SDS011;8520;50.102;20.010;2023-10-08T06:24:08;84.73;;;79.93;;
16804;SDS011;8520;50.102;20.010;2023-10-08T06:26:37;83.93;;;79.27;;
16804;SDS011;8520;50.102;20.010;2023-10-08T06:29:12;83.77;;;79.37;;
16804;SDS011;8520;50.102;20.010;2023-10-08T06:31:54;84.43;;;79.90;;
16804;SDS011;8520;50.102;20.010;2023-10-08T06:34:23;83.20;;;78.70;;
16804;SDS011;8520;50.102;20.010;2023-10-08T06:36:55;82.80;;;78.30;;
16804;SDS011;8520;50.102;20.010;2023-10-08T06:39:28;82.30;;;77.90;;
16804;SDS011;8520;50.102;20.010;2023-10-08T06:42:14;84.53;;;79.83;;
16804;SDS011;8520;50.102;20.010;2023-10-08T06:44:43;82.73;;;78.23;;
16804;SDS011;8520;50.102;20.010;2023-10-08T06:47:13;82.27;;;77.87;;
16804;SDS011;8520;50.102;20.010;2023-10-08T06:49:43;83.80;;;79.20;;
16804;SDS011;8520;50.102;20.010;2023-10-08T06:52:11;82.80;;;78.40;;
16804;SDS011;8520;50.102;20.010;2023-10-08T06:54:41;83.47;;;78.90;;
16804;SDS011;8520;50.102;20.010;2023-10-08T06:57:09;82.77;;;78.37;;
16804;SDS011;8520;50.102;20.010;2023-10-08T06:59:41;83.03;;;78.57;;
16804;SDS011;8520;50.102;20.010;2023-10-08T07:02:09;82.90;;;78.50;;
16804;SDS011;8520;50.102;20.010;2023-10-08T07:04:41;83.30;;;78.70;;
16804;SDS011;8520;50.102;20.010;2023-10-08T07:07:11;83.73;;;79.03;;
16804;SDS011;8520;50.102;20.010;2023-10-08T07:09:47;85.30;;;80.60;;
16804;SDS011;8520;50.102;20.010;2023-10-08T07:12:18;85.33;;;80.73;;
16804;SDS011;8520;50.102;20.010;2023-10-08T07:14:46;85.87;;;81.10;;
16804;SDS011;8520;50.102;20.010;2023-10-08T07:17:14;85.53;;;80.80;;
16804;SDS011;8520;50.102;20.010;2023-10-08T07:19:47;85.47;;;80.87;;
16804;SDS011;8520;50.102;20.010;2023-10-08T07:22:17;84.50;;;79.90;;
16804;SDS011;8520;50.102;20.010;2023-10-08T07:24:51;85.17;;;80.40;;
16804;SDS011;8520;50.102;20.010;2023-10-08T07:27:19;83.27;;;78.77;;
16804;SDS011;8520;50.102;20.010;2023-10-08T07:29:51;82.07;;;77.73;;
16804;SDS011;8520;50.102;20.010;2023-10-08T07:32:23;80.27;;;76.07;;
16804;SDS011;8520;50.102;20.010;2023-10-08T07:34:53;80.80;;;76.50;;
16804;SDS011;8520;50.102;20.010;2023-10-08T07:37:24;79.30;;;75.20;;
16804;SDS011;8520;50.102;20.010;2023-10-08T07:39:55;77.47;;;73.30;;
16804;SDS011;8520;50.102;20.010;2023-10-08T07:42:25;77.67;;;73.50;;
16804;SDS011;8520;50.102;20.010;2023-10-08T07:44:53;74.10;;;70.30;;
16804;SDS011;8520;50.102;20.010;2023-10-08T07:47:21;73.80;;;69.97;;
16804;SDS011;8520;50.102;20.010;2023-10-08T07:49:49;71.13;;;67.63;;
16804;SDS011;8520;50.102;20.010;2023-10-08T07:52:18;68.97;;;65.47;;
16804;SDS011;8520;50.102;20.010;2023-10-08T07:54:47;65.30;;;62.10;;
16804;SDS011;8520;50.102;20.010;2023-10-08T07:57:16;62.63;;;59.50;;
16804;SDS011;8520;50.102;20.010;2023-10-08T07:59:52;61.33;;;58.23;;
16804;SDS011;8520;50.102;20.010;2023-10-08T08:02:22;57.40;;;54.60;;
16804;SDS011;8520;50.102;20.010;2023-10-08T08:04:51;54.07;;;51.57;;
16804;SDS011;8520;50.102;20.010;2023-10-08T08:07:19;52.80;;;50.07;;
16804;SDS011;8520;50.102;20.010;2023-10-08T08:09:48;48.23;;;45.93;;
16804;SDS011;8520;50.102;20.010;2023-10-08T08:12:20;46.83;;;44.63;;
16804;SDS011;8520;50.102;20.010;2023-10-08T08:14:50;46.30;;;44.30;;
16804;SDS011;8520;50.102;20.010;2023-10-08T08:17:18;44.90;;;42.90;;
16804;SDS011;8520;50.102;20.010;2023-10-08T08:19:47;44.20;;;42.40;;
16804;SDS011;8520;50.102;20.010;2023-10-08T08:22:17;45.40;;;43.40;;
16804;SDS011;8520;50.102;20.010;2023-10-08T08:24:50;45.67;;;43.67;;
16804;SDS011;8520;50.102;20.010;2023-10-08T08:27:25;42.23;;;40.40;;
16804;SDS011;8520;50.102;20.010;2023-10-08T08:29:59;40.03;;;38.33;;
16804;SDS011;8520;50.102;20.010;2023-10-08T08:32:37;40.03;;;38.23;;
16804;SDS011;8520;50.102;20.010;2023-10-08T08:35:06;38.80;;;37.10;;
16804;SDS011;8520;50.102;20.010;2023-10-08T08:37:36;32.90;;;31.40;;
16804;SDS011;8520;50.102;20.010;2023-10-08T08:40:05;30.63;;;29.30;;
16804;SDS011;8520;50.102;20.010;2023-10-08T08:42:37;32.43;;;30.97;;
16804;SDS011;8520;50.102;20.010;2023-10-08T08:45:06;26.80;;;25.70;;
16804;SDS011;8520;50.102;20.010;2023-10-08T08:47:38;26.80;;;25.70;;
16804;SDS011;8520;50.102;20.010;2023-10-08T08:50:08;18.60;;;17.80;;
16804;SDS011;8520;50.102;20.010;2023-10-08T08:52:36;19.10;;;18.30;;
16804;SDS011;8520;50.102;20.010;2023-10-08T08:55:05;19.93;;;19.03;;
16804;SDS011;8520;50.102;20.010;2023-10-08T08:57:42;19.03;;;18.13;;
16804;SDS011;8520;50.102;20.010;2023-10-08T09:00:11;10.77;;;10.27;;
16804;SDS011;8520;50.102;20.010;2023-10-08T09:02:40;10.47;;;9.87;;
16804;SDS011;8520;50.102;20.010;2023-10-08T09:05:09;10.90;;;10.23;;
16804;SDS011;8520;50.102;20.010;2023-10-08T09:07:55;9.30;;;8.90;;
16804;SDS011;8520;50.102;20.010;2023-10-08T09:10:23;8.00;;;7.57;;
16804;SDS011;8520;50.102;20.010;2023-10-08T09:12:56;7.90;;;7.53;;
16804;SDS011;8520;50.102;20.010;2023-10-08T09:15:25;8.00;;;7.50;;
16804;SDS011;8520;50.102;20.010;2023-10-08T09:17:54;6.50;;;6.10;;
16804;SDS011;8520;50.102;20.010;2023-10-08T09:20:22;7.53;;;7.13;;
16804;SDS011;8520;50.102;20.010;2023-10-08T09:23:04;8.83;;;8.30;;
16804;SDS011;8520;50.102;20.010;2023-10-08T09:25:34;6.97;;;6.57;;
16804;SDS011;8520;50.102;20.010;2023-10-08T09:28:03;6.17;;;5.83;;
16804;SDS011;8520;50.102;20.010;2023-10-08T09:30:34;5.70;;;5.40;;
16804;SDS011;8520;50.102;20.010;2023-10-08T09:33:05;4.80;;;4.60;;
16804;SDS011;8520;50.102;20.010;2023-10-08T09:35:33;3.43;;;3.23;;
16804;SDS011;8520;50.102;20.010;2023-10-08T09:38:01;4.20;;;3.90;;
16804;SDS011;8520;50.102;20.010;2023-10-08T09:40:30;3.73;;;3.53;;
16804;SDS011;8520;50.102;20.010;2023-10-08T09:42:58;3.70;;;3.50;;
16804;SDS011;8520;50.102;20.010;2023-10-08T09:45:28;3.20;;;3.00;;
16804;SDS011;8520;50.102;20.010;2023-10-08T09:47:56;3.00;;;2.80;;
16804;SDS011;8520;50.102;20.010;2023-10-08T09:50:27;2.80;;;2.60;;
16804;SDS011;8520;50.102;20.010;2023-10-08T09:52:56;4.17;;;2.87;;
16804;SDS011;8520;50.102;20.010;2023-10-08T09:55:26;4.33;;;2.70;;
16804;SDS011;8520;50.102;20.010;2023-10-08T09:57:54;3.67;;;3.00;;
16804;SDS011;8520;50.102;20.010;2023-10-08T10:00:23;2.77;;;2.57;;
16804;SDS011;8520;50.102;20.010;2023-10-08T10:02:59;2.93;;;2.70;;
16804;SDS011;8520;50.102;20.010;2023-10-08T10:05:31;3.60;;;3.30;;
16804;SDS011;8520;50.102;20.010;2023-10-08T10:08:00;3.10;;;2.90;;
16804;SDS011;8520;50.102;20.010;2023-10-08T10:10:32;2.97;;;2.83;;
16804;SDS011;8520;50.102;20.010;2023-10-08T10:13:02;3.27;;;3.07;;
16804;SDS011;8520;50.102;20.010;2023-10-08T10:15:31;3.60;;;3.30;;
16804;SDS011;8520;50.102;20.010;2023-10-08T10:18:09;3.37;;;3.17;;
16804;SDS011;8520;50.102;20.010;2023-10-08T10:20:44;3.40;;;3.10;;
16804;SDS011;8520;50.102;20.010;2023-10-08T10:26:03;3.10;;;2.90;;
16804;SDS011;8520;50.102;20.010;2023-10-08T10:28:31;3.20;;;3.00;;
16804;SDS011;8520;50.102;20.010;2023-10-08T10:30:59;3.20;;;3.00;;
16804;SDS011;8520;50.102;20.010;2023-10-08T10:33:32;3.10;;;2.90;;
16804;SDS011;8520;50.102;20.010;2023-10-08T10:36:01;2.90;;;2.70;;
16804;SDS011;8520;50.102;20.010;2023-10-08T10:38:32;2.43;;;2.30;;
16804;SDS011;8520;50.102;20.010;2023-10-08T10:41:03;2.23;;;2.07;;
16804;SDS011;8520;50.102;20.010;2023-10-08T10:43:35;2.60;;;2.40;;
16804;SDS011;8520;50.102;20.010;2023-10-08T10:46:07;2.20;;;2.10;;
16804;SDS011;8520;50.102;20.010;2023-10-08T10:48:57;2.20;;;2.10;;
16804;SDS011;8520;50.102;20.010;2023-10-08T10:51:37;2.47;;;2.27;;
16804;SDS011;8520;50.102;20.010;2023-10-08T10:54:08;2.97;;;2.77;;
16804;SDS011;8520;50.102;20.010;2023-10-08T10:56:37;2.60;;;2.40;;
16804;SDS011;8520;50.102;20.010;2023-10-08T10:59:09;2.30;;;2.20;;
16804;SDS011;8520;50.102;20.010;2023-10-08T11:01:46;2.60;;;2.40;;
16804;SDS011;8520;50.102;20.010;2023-10-08T11:04:16;2.60;;;2.33;;
16804;SDS011;8520;50.102;20.010;2023-10-08T11:06:46;2.50;;;2.30;;
16804;SDS011;8520;50.102;20.010;2023-10-08T11:09:15;2.67;;;2.57;;
16804;SDS011;8520;50.102;20.010;2023-10-08T11:11:43;2.37;;;2.27;;
16804;SDS011;8520;50.102;20.010;2023-10-08T11:14:12;2.13;;;2.03;;
16804;SDS011;8520;50.102;20.010;2023-10-08T11:16:42;2.00;;;1.90;;
16804;SDS011;8520;50.102;20.010;2023-10-08T11:19:11;2.00;;;1.90;;
16804;SDS011;8520;50.102;20.010;2023-10-08T11:21:50;2.10;;;1.90;;
16804;SDS011;8520;50.102;20.010;2023-10-08T11:24:27;2.30;;;2.20;;
16804;SDS011;8520;50.102;20.010;2023-10-08T11:26:55;2.50;;;2.40;;
16804;SDS011;8520;50.102;20.010;2023-10-08T11:29:43;2.10;;;2.00;;
16804;SDS011;8520;50.102;20.010;2023-10-08T11:32:14;1.90;;;1.80;;
16804;SDS011;8520;50.102;20.010;2023-10-08T11:34:45;1.90;;;1.80;;
16804;SDS011;8520;50.102;20.010;2023-10-08T11:37:27;2.00;;;1.90;;
16804;SDS011;8520;50.102;20.010;2023-10-08T11:39:55;2.53;;;1.80;;
16804;SDS011;8520;50.102;20.010;2023-10-08T11:42:25;2.30;;;2.20;;
16804;SDS011;8520;50.102;20.010;2023-10-08T11:45:11;2.57;;;2.37;;
16804;SDS011;8520;50.102;20.010;2023-10-08T11:47:53;2.20;;;2.10;;
16804;SDS011;8520;50.102;20.010;2023-10-08T11:50:30;2.50;;;2.40;;
16804;SDS011;8520;50.102;20.010;2023-10-08T11:53:00;2.30;;;2.10;;
16804;SDS011;8520;50.102;20.010;2023-10-08T11:55:30;2.40;;;2.30;;
16804;SDS011;8520;50.102;20.010;2023-10-08T11:58:02;2.35;;;2.25;;
16804;SDS011;8520;50.102;20.010;2023-10-08T12:00:37;2.90;;;2.70;;
16804;SDS011;8520;50.102;20.010;2023-10-08T12:03:11;2.90;;;2.70;;
16804;SDS011;8520;50.102;20.010;2023-10-08T12:05:43;2.90;;;2.80;;
16804;SDS011;8520;50.102;20.010;2023-10-08T12:08:16;2.85;;;2.67;;
16804;SDS011;8520;50.102;20.010;2023-10-08T12:10:44;3.05;;;2.85;;
16804;SDS011;8520;50.102;20.010;2023-10-08T12:13:15;2.90;;;2.70;;
16804;SDS011;8520;50.102;20.010;2023-10-08T12:15:45;3.13;;;2.92;;
16804;SDS011;8520;50.102;20.010;2023-10-08T12:18:14;2.78;;;2.67;;
16804;SDS011;8520;50.102;20.010;2023-10-08T12:20:51;3.08;;;2.95;;
16804;SDS011;8520;50.102;20.010;2023-10-08T12:23:22;3.22;;;3.00;;
16804;SDS011;8520;50.102;20.010;2023-10-08T12:25:52;3.33;;;3.13;;
16804;SDS011;8520;50.102;20.010;2023-10-08T12:28:22;2.67;;;2.58;;
16804;SDS011;8520;50.102;20.010;2023-10-08T12:30:51;3.50;;;3.20;;
16804;SDS011;8520;50.102;20.010;2023-10-08T12:33:20;3.45;;;2.83;;
16804;SDS011;8520;50.102;20.010;2023-10-08T12:35:51;2.65;;;2.55;;
16804;SDS011;8520;50.102;20.010;2023-10-08T12:38:21;2.78;;;2.67;;
16804;SDS011;8520;50.102;20.010;2023-10-08T12:40:49;2.80;;;2.65;;
16804;SDS011;8520;50.102;20.010;2023-10-08T12:43:20;3.00;;;2.80;;
16804;SDS011;8520;50.102;20.010;2023-10-08T12:45:49;3.05;;;2.88;;
16804;SDS011;8520;50.102;20.010;2023-10-08T12:48:20;2.95;;;2.85;;
16804;SDS011;8520;50.102;20.010;2023-10-08T12:50:48;2.60;;;2.50;;
16804;SDS011;8520;50.102;20.010;2023-10-08T12:53:25;2.70;;;2.50;;
16804;SDS011;8520;50.102;20.010;2023-10-08T12:56:00;2.80;;;2.60;;
16804;SDS011;8520;50.102;20.010;2023-10-08T12:58:33;3.00;;;2.80;;
16804;SDS011;8520;50.102;20.010;2023-10-08T13:01:08;2.97;;;2.78;;
16804;SDS011;8520;50.102;20.010;2023-10-08T13:03:37;2.85;;;2.70;;
16804;SDS011;8520;50.102;20.010;2023-10-08T13:06:09;3.13;;;3.03;;
16804;SDS011;8520;50.102;20.010;2023-10-08T13:08:43;2.90;;;2.80;;
16804;SDS011;8520;50.102;20.010;2023-10-08T13:11:11;2.95;;;2.80;;
16804;SDS011;8520;50.102;20.010;2023-10-08T13:13:39;3.30;;;3.10;;
16804;SDS011;8520;50.102;20.010;2023-10-08T13:16:08;3.40;;;3.20;;
16804;SDS011;8520;50.102;20.010;2023-10-08T13:18:36;3.33;;;3.13;;
16804;SDS011;8520;50.102;20.010;2023-10-08T13:21:04;2.88;;;2.67;;
16804;SDS011;8520;50.102;20.010;2023-10-08T13:23:33;2.90;;;2.70;;
16804;SDS011;8520;50.102;20.010;2023-10-08T13:26:03;4.30;;;3.40;;
16804;SDS011;8520;50.102;20.010;2023-10-08T13:28:33;3.00;;;2.78;;
16804;SDS011;8520;50.102;20.010;2023-10-08T13:31:02;2.90;;;2.70;;
16804;SDS011;8520;50.102;20.010;2023-10-08T13:33:37;3.00;;;2.90;;
16804;SDS011;8520;50.102;20.010;2023-10-08T13:36:07;3.10;;;2.90;;
16804;SDS011;8520;50.102;20.010;2023-10-08T13:38:45;3.70;;;3.50;;
16804;SDS011;8520;50.102;20.010;2023-10-08T13:41:15;3.20;;;2.90;;
16804;SDS011;8520;50.102;20.010;2023-10-08T13:43:45;3.00;;;2.80;;
16804;SDS011;8520;50.102;20.010;2023-10-08T13:46:13;2.60;;;2.50;;
16804;SDS011;8520;50.102;20.010;2023-10-08T13:48:43;3.83;;;3.63;;
16804;SDS011;8520;50.102;20.010;2023-10-08T13:51:13;3.17;;;2.97;;
16804;SDS011;8520;50.102;20.010;2023-10-08T13:53:42;2.70;;;2.60;;
16804;SDS011;8520;50.102;20.010;2023-10-08T13:56:11;3.65;;;3.35;;
16804;SDS011;8520;50.102;20.010;2023-10-08T13:58:41;2.90;;;2.80;;
16804;SDS011;8520;50.102;20.010;2023-10-08T14:01:13;2.95;;;2.85;;
16804;SDS011;8520;50.102;20.010;2023-10-08T14:03:48;3.45;;;2.90;;
16804;SDS011;8520;50.102;20.010;2023-10-08T14:06:20;2.80;;;2.60;;
16804;SDS011;8520;50.102;20.010;2023-10-08T14:08:48;3.40;;;3.10;;
16804;SDS011;8520;50.102;20.010;2023-10-08T14:11:19;3.25;;;3.03;;
16804;SDS011;8520;50.102;20.010;2023-10-08T14:13:51;2.70;;;2.60;;
16804;SDS011;8520;50.102;20.010;2023-10-08T14:16:19;2.97;;;2.85;;
16804;SDS011;8520;50.102;20.010;2023-10-08T14:18:50;3.30;;;3.00;;
16804;SDS011;8520;50.102;20.010;2023-10-08T14:21:20;3.17;;;2.88;;
16804;SDS011;8520;50.102;20.010;2023-10-08T14:23:50;2.95;;;2.75;;
16804;SDS011;8520;50.102;20.010;2023-10-08T14:26:20;3.20;;;3.00;;
16804;SDS011;8520;50.102;20.010;2023-10-08T14:28:49;2.83;;;2.63;;
16804;SDS011;8520;50.102;20.010;2023-10-08T14:31:25;2.90;;;2.70;;
16804;SDS011;8520;50.102;20.010;2023-10-08T14:33:53;3.67;;;3.47;;
16804;SDS011;8520;50.102;20.010;2023-10-08T14:36:32;3.10;;;2.90;;
16804;SDS011;8520;50.102;20.010;2023-10-08T14:39:18;3.28;;;2.97;;
16804;SDS011;8520;50.102;20.010;2023-10-08T14:42:11;3.80;;;3.60;;
16804;SDS011;8520;50.102;20.010;2023-10-08T14:44:57;4.07;;;3.45;;
16804;SDS011;8520;50.102;20.010;2023-10-08T14:47:26;3.00;;;2.80;;
16804;SDS011;8520;50.102;20.010;2023-10-08T14:49:54;3.30;;;3.10;;
16804;SDS011;8520;50.102;20.010;2023-10-08T14:52:23;3.08;;;2.88;;
16804;SDS011;8520;50.102;20.010;2023-10-08T14:54:52;3.08;;;2.65;;
16804;SDS011;8520;50.102;20.010;2023-10-08T14:57:20;3.58;;;3.38;;
16804;SDS011;8520;50.102;20.010;2023-10-08T14:59:48;3.30;;;3.10;;
16804;SDS011;8520;50.102;20.010;2023-10-08T15:02:18;3.15;;;2.95;;